createdAt,value
2023-03-12T00:00:19.827Z,238
2023-03-12T00:00:50.657Z,239
2023-03-12T00:01:22.889Z,239
2023-03-12T00:01:54.602Z,239
2023-03-12T00:02:26.379Z,239
2023-03-12T00:02:58.704Z,258
2023-03-12T00:03:30.546Z,258
2023-03-12T00:04:03.158Z,282
2023-03-12T00:04:34.386Z,281
2023-03-12T00:05:06.681Z,309
2023-03-12T00:05:22.631Z,309
2023-03-12T00:05:54.865Z,299
2023-03-12T00:06:38.375Z,292
2023-03-12T00:07:10.300Z,292
2023-03-12T00:07:42.405Z,291
2023-03-12T00:08:14.230Z,286
2023-03-12T00:08:46.367Z,285
2023-03-12T00:09:18.343Z,300
2023-03-12T00:09:50.166Z,295
2023-03-12T00:10:22.681Z,266
2023-03-12T00:10:54.243Z,266
2023-03-12T00:11:26.050Z,261
2023-03-12T00:11:58.172Z,261
2023-03-12T00:12:30.069Z,281
2023-03-12T00:13:02.867Z,306
2023-03-12T00:13:33.978Z,311
2023-03-12T00:14:06.068Z,310
2023-03-12T00:14:22.475Z,310
2023-03-12T00:15:06.920Z,299
2023-03-12T00:15:38.112Z,298
2023-03-12T00:16:10.065Z,298
2023-03-12T00:16:41.992Z,298
2023-03-12T00:17:13.875Z,311
2023-03-12T00:17:45.996Z,326
2023-03-12T00:18:17.756Z,334
2023-03-12T00:18:49.790Z,328
2023-03-12T00:19:22.071Z,281
2023-03-12T00:19:53.758Z,280
2023-03-12T00:20:25.992Z,280
2023-03-12T00:20:57.724Z,280
2023-03-12T00:21:29.682Z,280
2023-03-12T00:22:02.316Z,280
2023-03-12T00:22:33.589Z,280
2023-03-12T00:23:05.697Z,280
2023-03-12T00:23:37.800Z,280
2023-03-12T00:24:09.823Z,280
2023-03-12T00:24:41.627Z,280
2023-03-12T00:25:13.913Z,280
2023-03-12T00:25:46.951Z,280
2023-03-12T00:26:17.494Z,280
2023-03-12T00:26:49.621Z,280
2023-03-12T00:27:05.522Z,280
2023-03-12T00:27:49.679Z,280
2023-03-12T00:28:21.798Z,280
2023-03-12T00:28:53.446Z,280
2023-03-12T00:29:25.549Z,280
2023-03-12T00:29:57.394Z,280
2023-03-12T00:30:29.910Z,280
2023-03-12T00:31:02.047Z,280
2023-03-12T00:31:33.293Z,280
2023-03-12T00:32:05.461Z,280
2023-03-12T00:32:21.789Z,280
2023-03-12T00:33:05.387Z,280
2023-03-12T00:33:37.291Z,280
2023-03-12T00:34:09.112Z,279
2023-03-12T00:34:41.350Z,280
2023-03-12T00:35:13.514Z,280
2023-03-12T00:35:45.137Z,280
2023-03-12T00:36:16.959Z,280
2023-03-12T00:36:49.222Z,280
2023-03-12T00:37:05.442Z,280
2023-03-12T00:37:36.922Z,280
2023-03-12T00:37:53.184Z,281
2023-03-12T00:38:25.006Z,304
2023-03-12T00:38:56.937Z,294
2023-03-12T00:39:28.964Z,288
2023-03-12T00:40:01.546Z,287
2023-03-12T00:40:32.764Z,288
2023-03-12T00:41:05.350Z,295
2023-03-12T00:41:21.233Z,296
2023-03-12T00:41:52.965Z,295
2023-03-12T00:42:36.994Z,296
2023-03-12T00:43:08.874Z,313
2023-03-12T00:43:40.893Z,311
2023-03-12T00:44:12.924Z,313
2023-03-12T00:44:44.807Z,303
2023-03-12T00:45:17.683Z,310
2023-03-12T00:45:49.026Z,279
2023-03-12T00:46:20.741Z,296
2023-03-12T00:46:53.048Z,295
2023-03-12T00:47:24.658Z,296
2023-03-12T00:47:56.654Z,280
2023-03-12T00:48:28.810Z,280
2023-03-12T00:49:00.948Z,280
2023-03-12T00:49:32.612Z,280
2023-03-12T00:50:05.281Z,280
2023-03-12T00:50:36.628Z,280
2023-03-12T00:51:08.489Z,280
2023-03-12T00:51:40.610Z,280
2023-03-12T00:52:12.611Z,280
2023-03-12T00:52:44.398Z,280
2023-03-12T00:53:16.553Z,280
2023-03-12T00:53:48.402Z,280
2023-03-12T00:54:04.996Z,280
2023-03-12T00:54:36.301Z,280
2023-03-12T00:54:52.505Z,280
2023-03-12T00:55:24.739Z,280
2023-03-12T00:55:56.282Z,280
2023-03-12T00:56:28.244Z,280
2023-03-12T00:57:00.927Z,280
2023-03-12T00:57:32.400Z,280
2023-03-12T00:58:04.711Z,280
2023-03-12T00:58:36.189Z,280
2023-03-12T00:59:08.232Z,280
2023-03-12T00:59:40.333Z,260
2023-03-12T01:00:13.346Z,258
2023-03-12T01:00:44.195Z,247
2023-03-12T01:01:16.231Z,247
2023-03-12T01:01:48.238Z,247
2023-03-12T01:02:19.970Z,247
2023-03-12T01:02:36.185Z,247
2023-03-12T01:03:07.967Z,247
2023-03-12T01:03:52.358Z,247
2023-03-12T01:04:24.057Z,247
2023-03-12T01:04:55.895Z,247
2023-03-12T01:05:28.106Z,247
2023-03-12T01:05:59.881Z,247
2023-03-12T01:06:32.035Z,247
2023-03-12T01:07:04.458Z,247
2023-03-12T01:07:19.889Z,247
2023-03-12T01:08:04.446Z,246
2023-03-12T01:08:35.770Z,242
2023-03-12T01:09:07.894Z,241
2023-03-12T01:09:39.749Z,241
2023-03-12T01:10:12.118Z,241
2023-03-12T01:10:43.738Z,241
2023-03-12T01:11:15.644Z,241
2023-03-12T01:11:47.490Z,241
2023-03-12T01:12:19.698Z,241
2023-03-12T01:12:35.669Z,241
2023-03-12T01:13:19.571Z,241
2023-03-12T01:13:51.700Z,241
2023-03-12T01:14:23.412Z,241
2023-03-12T01:14:55.529Z,241
2023-03-12T01:15:27.917Z,247
2023-03-12T01:15:59.694Z,247
2023-03-12T01:16:31.523Z,247
2023-03-12T01:17:03.963Z,247
2023-03-12T01:17:19.608Z,247
2023-03-12T01:17:51.619Z,247
2023-03-12T01:18:35.493Z,247
2023-03-12T01:19:07.331Z,247
2023-03-12T01:19:39.289Z,247
2023-03-12T01:20:11.630Z,247
2023-03-12T01:20:43.205Z,247
2023-03-12T01:21:15.076Z,247
2023-03-12T01:21:47.218Z,247
2023-03-12T01:22:19.303Z,247
2023-03-12T01:22:51.381Z,240
2023-03-12T01:23:23.151Z,238
2023-03-12T01:23:55.173Z,237
2023-03-12T01:24:27.040Z,224
2023-03-12T01:24:59.316Z,225
2023-03-12T01:25:31.255Z,204
2023-03-12T01:26:03.175Z,200
2023-03-12T01:26:19.084Z,198
2023-03-12T01:27:03.297Z,193
2023-03-12T01:27:35.063Z,188
2023-03-12T01:28:06.925Z,172
2023-03-12T01:28:38.808Z,168
2023-03-12T01:29:11.238Z,168
2023-03-12T01:29:42.970Z,168
2023-03-12T01:30:15.729Z,168
2023-03-12T01:30:46.782Z,164
2023-03-12T01:31:18.935Z,164
2023-03-12T01:31:50.871Z,164
2023-03-12T01:32:22.961Z,160
2023-03-12T01:32:54.820Z,161
2023-03-12T01:33:26.681Z,160
2023-03-12T01:33:58.875Z,147
2023-03-12T01:34:30.741Z,147
2023-03-12T01:35:03.801Z,147
2023-03-12T01:35:18.787Z,147
2023-03-12T01:35:51.315Z,145
2023-03-12T01:36:34.839Z,145
2023-03-12T01:37:06.399Z,145
2023-03-12T01:37:38.417Z,145
2023-03-12T01:38:10.595Z,145
2023-03-12T01:38:42.748Z,145
2023-03-12T01:39:14.377Z,145
2023-03-12T01:39:46.374Z,145
2023-03-12T01:40:03.683Z,145
2023-03-12T01:40:46.465Z,145
2023-03-12T01:41:18.444Z,145
2023-03-12T01:41:50.536Z,145
2023-03-12T01:42:22.552Z,145
2023-03-12T01:42:54.355Z,145
2023-03-12T01:43:26.577Z,145
2023-03-12T01:43:58.530Z,145
2023-03-12T01:44:30.194Z,145
2023-03-12T01:45:05.572Z,145
2023-03-12T01:45:34.413Z,145
2023-03-12T01:46:06.287Z,145
2023-03-12T01:46:38.286Z,145
2023-03-12T01:47:10.256Z,145
2023-03-12T01:47:42.366Z,142
2023-03-12T01:48:14.098Z,141
2023-03-12T01:48:46.139Z,141
2023-03-12T01:49:18.118Z,141
2023-03-12T01:49:50.133Z,141
2023-03-12T01:50:22.478Z,140
2023-03-12T01:50:53.946Z,141
2023-03-12T01:51:26.157Z,141
2023-03-12T01:51:58.104Z,141
2023-03-12T01:52:29.841Z,141
2023-03-12T01:53:02.861Z,141
2023-03-12T01:53:33.931Z,141
2023-03-12T01:54:05.986Z,141
2023-03-12T01:54:37.770Z,141
2023-03-12T01:55:10.018Z,142
2023-03-12T01:55:41.972Z,152
2023-03-12T01:56:13.884Z,155
2023-03-12T01:56:45.609Z,155
2023-03-12T01:57:02.658Z,155
2023-03-12T01:57:45.629Z,155
2023-03-12T01:58:17.768Z,156
2023-03-12T01:58:49.740Z,192
2023-03-12T01:59:21.608Z,216
2023-03-12T01:59:53.539Z,251
2023-03-12T02:00:26.093Z,251
2023-03-12T02:00:57.767Z,251
2023-03-12T02:01:29.682Z,251
2023-03-12T02:02:02.104Z,251
2023-03-12T02:02:33.467Z,251
2023-03-12T02:03:05.836Z,251
2023-03-12T02:03:37.454Z,251
2023-03-12T02:04:09.395Z,251
2023-03-12T02:04:41.586Z,251
2023-03-12T02:05:13.677Z,251
2023-03-12T02:05:45.244Z,251
2023-03-12T02:06:01.971Z,251
2023-03-12T02:06:33.308Z,248
2023-03-12T02:06:49.400Z,243
2023-03-12T02:07:21.409Z,243
2023-03-12T02:07:53.206Z,243
2023-03-12T02:08:09.465Z,243
2023-03-12T02:08:41.296Z,243
2023-03-12T02:09:25.424Z,243
2023-03-12T02:09:57.343Z,243
2023-03-12T02:10:29.441Z,243
2023-03-12T02:11:01.938Z,243
2023-03-12T02:11:33.120Z,243
2023-03-12T02:12:05.512Z,241
2023-03-12T02:12:36.958Z,224
2023-03-12T02:13:09.343Z,142
2023-03-12T02:13:41.460Z,141
2023-03-12T02:14:13.070Z,136
2023-03-12T02:14:44.921Z,136
2023-03-12T02:15:03.536Z,136
2023-03-12T02:15:44.911Z,127
2023-03-12T02:16:17.072Z,126
2023-03-12T02:16:49.121Z,126
2023-03-12T02:17:20.920Z,126
2023-03-12T02:17:53.116Z,125
2023-03-12T02:18:24.870Z,126
2023-03-12T02:18:57.067Z,126
2023-03-12T02:19:29.032Z,117
2023-03-12T02:20:01.189Z,117
2023-03-12T02:20:33.014Z,114
2023-03-12T02:21:04.975Z,112
2023-03-12T02:21:36.644Z,112
2023-03-12T02:22:08.826Z,112
2023-03-12T02:22:40.779Z,112
2023-03-12T02:23:12.829Z,112
2023-03-12T02:23:44.651Z,112
2023-03-12T02:24:16.662Z,112
2023-03-12T02:24:48.686Z,112
2023-03-12T02:25:20.811Z,164
2023-03-12T02:25:52.741Z,176
2023-03-12T02:26:24.531Z,180
2023-03-12T02:26:56.688Z,180
2023-03-12T02:27:28.398Z,180
2023-03-12T02:28:00.363Z,180
2023-03-12T02:28:32.753Z,183
2023-03-12T02:29:04.688Z,187
2023-03-12T02:29:36.384Z,187
2023-03-12T02:30:09.407Z,187
2023-03-12T02:30:40.418Z,187
2023-03-12T02:31:12.699Z,187
2023-03-12T02:31:44.278Z,187
2023-03-12T02:32:16.227Z,187
2023-03-12T02:32:32.772Z,187
2023-03-12T02:33:04.419Z,187
2023-03-12T02:33:48.394Z,187
2023-03-12T02:34:20.166Z,184
2023-03-12T02:34:52.312Z,185
2023-03-12T02:35:24.492Z,185
2023-03-12T02:35:56.183Z,185
2023-03-12T02:36:28.017Z,184
2023-03-12T02:37:00.113Z,187
2023-03-12T02:37:16.202Z,187
2023-03-12T02:38:00.053Z,186
2023-03-12T02:38:32.352Z,186
2023-03-12T02:39:04.216Z,174
2023-03-12T02:39:35.898Z,170
2023-03-12T02:40:08.322Z,157
2023-03-12T02:40:39.900Z,140
2023-03-12T02:41:12.205Z,133
2023-03-12T02:41:43.919Z,133
2023-03-12T02:42:15.851Z,127
2023-03-12T02:42:47.922Z,127
2023-03-12T02:43:19.730Z,127
2023-03-12T02:43:51.924Z,128
2023-03-12T02:44:23.727Z,127
2023-03-12T02:44:55.889Z,127
2023-03-12T02:45:27.979Z,127
2023-03-12T02:45:59.902Z,127
2023-03-12T02:46:15.800Z,127
2023-03-12T02:46:47.706Z,127
2023-03-12T02:47:33.045Z,124
2023-03-12T02:48:04.063Z,122
2023-03-12T02:48:35.602Z,122
2023-03-12T02:49:07.609Z,116
2023-03-12T02:49:39.706Z,118
2023-03-12T02:50:12.085Z,118
2023-03-12T02:50:43.411Z,118
2023-03-12T02:51:15.512Z,116
2023-03-12T02:51:47.628Z,115
2023-03-12T02:52:19.430Z,116
2023-03-12T02:52:51.581Z,116
2023-03-12T02:53:23.440Z,116
2023-03-12T02:53:55.246Z,90
2023-03-12T02:54:27.272Z,112
2023-03-12T02:54:59.439Z,112
2023-03-12T02:55:31.600Z,128
2023-03-12T02:56:03.806Z,112
2023-03-12T02:56:35.305Z,114
2023-03-12T02:57:07.214Z,112
2023-03-12T02:57:39.398Z,110
2023-03-12T02:58:11.417Z,122
2023-03-12T02:58:43.119Z,121
2023-03-12T02:59:15.094Z,114
2023-03-12T02:59:47.108Z,114
2023-03-12T03:00:19.647Z,115
2023-03-12T03:00:51.198Z,114
2023-03-12T03:01:23.158Z,114
2023-03-12T03:01:55.047Z,114
2023-03-12T03:02:27.144Z,114
2023-03-12T03:02:58.996Z,114
2023-03-12T03:03:31.126Z,114
2023-03-12T03:04:03.765Z,114
2023-03-12T03:04:34.849Z,114
2023-03-12T03:05:07.265Z,114
2023-03-12T03:05:38.925Z,114
2023-03-12T03:06:11.190Z,114
2023-03-12T03:06:42.873Z,114
2023-03-12T03:06:59.041Z,114
2023-03-12T03:07:43.021Z,113
2023-03-12T03:07:59.143Z,114
2023-03-12T03:08:42.968Z,114
2023-03-12T03:09:14.865Z,114
2023-03-12T03:09:46.602Z,114
2023-03-12T03:10:18.949Z,114
2023-03-12T03:10:50.681Z,122
2023-03-12T03:11:22.720Z,122
2023-03-12T03:11:54.500Z,123
2023-03-12T03:12:26.604Z,122
2023-03-12T03:12:58.635Z,120
2023-03-12T03:13:30.879Z,120
2023-03-12T03:14:03.417Z,115
2023-03-12T03:14:34.421Z,116
2023-03-12T03:15:07.287Z,116
2023-03-12T03:15:38.630Z,116
2023-03-12T03:16:10.251Z,115
2023-03-12T03:16:26.540Z,115
2023-03-12T03:17:10.320Z,116
2023-03-12T03:17:42.675Z,116
2023-03-12T03:18:14.535Z,116
2023-03-12T03:18:46.156Z,115
2023-03-12T03:19:18.417Z,116
2023-03-12T03:19:50.460Z,115
2023-03-12T03:20:22.538Z,115
2023-03-12T03:20:54.358Z,112
2023-03-12T03:21:26.311Z,111
2023-03-12T03:21:58.243Z,128
2023-03-12T03:22:30.345Z,114
2023-03-12T03:23:03.322Z,111
2023-03-12T03:23:18.514Z,111
2023-03-12T03:23:50.027Z,110
2023-03-12T03:24:22.110Z,110
2023-03-12T03:24:54.062Z,110
2023-03-12T03:25:34.267Z,110
2023-03-12T03:26:06.080Z,108
2023-03-12T03:26:37.987Z,108
2023-03-12T03:27:10.189Z,104
2023-03-12T03:27:42.149Z,104
2023-03-12T03:27:58.141Z,88
2023-03-12T03:28:45.303Z,112
2023-03-12T03:29:13.802Z,103
2023-03-12T03:29:45.855Z,100
2023-03-12T03:30:18.302Z,102
2023-03-12T03:30:49.831Z,101
2023-03-12T03:31:22.934Z,104
2023-03-12T03:31:54.369Z,104
2023-03-12T03:32:25.986Z,112
2023-03-12T03:32:57.888Z,115
2023-03-12T03:33:29.896Z,115
2023-03-12T03:34:02.560Z,116
2023-03-12T03:34:33.666Z,116
2023-03-12T03:35:06.147Z,120
2023-03-12T03:35:37.752Z,120
2023-03-12T03:36:09.807Z,120
2023-03-12T03:36:41.758Z,120
2023-03-12T03:36:57.717Z,120
2023-03-12T03:37:29.720Z,120
2023-03-12T03:38:13.449Z,120
2023-03-12T03:38:45.646Z,120
2023-03-12T03:39:17.445Z,120
2023-03-12T03:39:49.503Z,120
2023-03-12T03:40:21.896Z,120
2023-03-12T03:40:53.440Z,120
2023-03-12T03:41:25.301Z,120
2023-03-12T03:41:57.488Z,120
2023-03-12T03:42:29.462Z,120
2023-03-12T03:43:01.701Z,120
2023-03-12T03:43:33.263Z,120
2023-03-12T03:44:05.439Z,119
2023-03-12T03:44:37.309Z,118
2023-03-12T03:45:10.482Z,118
2023-03-12T03:45:41.274Z,120
2023-03-12T03:45:57.683Z,120
2023-03-12T03:46:41.342Z,120
2023-03-12T03:47:13.323Z,120
2023-03-12T03:47:45.279Z,120
2023-03-12T03:48:17.024Z,96
2023-03-12T03:48:49.190Z,97
2023-03-12T03:49:21.149Z,96
2023-03-12T03:49:52.933Z,96
2023-03-12T03:50:25.196Z,97
2023-03-12T03:50:57.052Z,96
2023-03-12T03:51:29.129Z,97
2023-03-12T03:52:00.810Z,97
2023-03-12T03:52:33.091Z,117
2023-03-12T03:53:05.080Z,129
2023-03-12T03:53:36.898Z,118
2023-03-12T03:54:08.958Z,136
2023-03-12T03:54:40.939Z,129
2023-03-12T03:54:57.099Z,129
2023-03-12T03:55:28.970Z,133
2023-03-12T03:55:44.823Z,133
2023-03-12T03:56:16.827Z,133
2023-03-12T03:56:48.760Z,133
2023-03-12T03:57:20.740Z,132
2023-03-12T03:57:52.872Z,133
2023-03-12T03:58:24.921Z,132
2023-03-12T03:58:56.674Z,124
2023-03-12T03:59:13.058Z,124
2023-03-12T03:59:44.580Z,124
2023-03-12T04:00:29.015Z,122
2023-03-12T04:01:00.438Z,119
2023-03-12T04:01:32.597Z,116
2023-03-12T04:02:04.514Z,104
2023-03-12T04:02:36.611Z,95
2023-03-12T04:03:08.360Z,109
2023-03-12T04:03:40.457Z,119
2023-03-12T04:04:12.766Z,115
2023-03-12T04:04:44.478Z,106
2023-03-12T04:05:16.691Z,101
2023-03-12T04:05:48.510Z,101
2023-03-12T04:06:20.324Z,101
2023-03-12T04:06:52.323Z,101
2023-03-12T04:07:24.398Z,101
2023-03-12T04:07:56.214Z,101
2023-03-12T04:08:12.363Z,101
2023-03-12T04:08:56.239Z,99
2023-03-12T04:09:28.248Z,87
2023-03-12T04:10:00.563Z,103
2023-03-12T04:10:32.282Z,108
2023-03-12T04:11:04.739Z,97
2023-03-12T04:11:36.150Z,97
2023-03-12T04:12:08.234Z,96
2023-03-12T04:12:40.342Z,97
2023-03-12T04:12:56.196Z,97
2023-03-12T04:13:28.008Z,97
2023-03-12T04:13:44.062Z,101
2023-03-12T04:14:16.096Z,103
2023-03-12T04:14:48.177Z,116
2023-03-12T04:15:20.380Z,120
2023-03-12T04:15:52.196Z,104
2023-03-12T04:16:24.281Z,116
2023-03-12T04:16:55.893Z,117
2023-03-12T04:17:11.985Z,117
2023-03-12T04:17:43.786Z,115
2023-03-12T04:18:28.056Z,120
2023-03-12T04:18:59.968Z,121
2023-03-12T04:19:31.798Z,120
2023-03-12T04:20:04.574Z,113
2023-03-12T04:20:35.817Z,105
2023-03-12T04:21:07.924Z,105
2023-03-12T04:21:39.857Z,105
2023-03-12T04:22:11.682Z,105
2023-03-12T04:22:43.670Z,105
2023-03-12T04:23:15.542Z,105
2023-03-12T04:23:47.629Z,105
2023-03-12T04:24:19.626Z,105
2023-03-12T04:24:51.799Z,105
2023-03-12T04:25:23.993Z,105
2023-03-12T04:25:55.508Z,105
2023-03-12T04:26:11.736Z,105
2023-03-12T04:26:55.582Z,105
2023-03-12T04:27:27.566Z,105
2023-03-12T04:27:59.576Z,105
2023-03-12T04:28:31.488Z,104
2023-03-12T04:29:04.289Z,105
2023-03-12T04:29:35.516Z,105
2023-03-12T04:30:08.277Z,105
2023-03-12T04:30:39.402Z,105
2023-03-12T04:30:55.935Z,105
2023-03-12T04:31:27.406Z,105
2023-03-12T04:31:43.601Z,105
2023-03-12T04:32:15.269Z,105
2023-03-12T04:32:47.262Z,105
2023-03-12T04:33:19.250Z,105
2023-03-12T04:33:51.421Z,104
2023-03-12T04:34:23.157Z,104
2023-03-12T04:34:55.152Z,104
2023-03-12T04:35:11.564Z,104
2023-03-12T04:35:43.350Z,104
2023-03-12T04:36:27.267Z,104
2023-03-12T04:36:58.932Z,104
2023-03-12T04:37:30.962Z,104
2023-03-12T04:38:03.761Z,104
2023-03-12T04:38:34.981Z,104
2023-03-12T04:39:06.923Z,104
2023-03-12T04:39:39.048Z,103
2023-03-12T04:39:55.144Z,103
2023-03-12T04:40:39.249Z,103
2023-03-12T04:41:11.034Z,103
2023-03-12T04:41:42.915Z,103
2023-03-12T04:42:14.828Z,104
2023-03-12T04:42:46.774Z,103
2023-03-12T04:43:19.098Z,94
2023-03-12T04:43:50.810Z,94
2023-03-12T04:44:22.900Z,94
2023-03-12T04:44:54.801Z,95
2023-03-12T04:45:27.339Z,96
2023-03-12T04:45:58.581Z,100
2023-03-12T04:46:30.726Z,108
2023-03-12T04:47:04.012Z,108
2023-03-12T04:47:34.791Z,107
2023-03-12T04:48:06.632Z,97
2023-03-12T04:48:38.613Z,94
2023-03-12T04:48:54.826Z,94
2023-03-12T04:49:26.553Z,112
2023-03-12T04:49:42.888Z,112
2023-03-12T04:50:15.833Z,102
2023-03-12T04:50:47.601Z,102
2023-03-12T04:51:18.639Z,102
2023-03-12T04:51:50.542Z,101
2023-03-12T04:52:22.544Z,100
2023-03-12T04:52:54.625Z,99
2023-03-12T04:53:26.405Z,97
2023-03-12T04:53:58.433Z,97
2023-03-12T04:54:30.377Z,96
2023-03-12T04:55:03.818Z,97
2023-03-12T04:55:34.394Z,90
2023-03-12T04:56:06.316Z,90
2023-03-12T04:56:38.103Z,94
2023-03-12T04:56:54.338Z,110
2023-03-12T04:57:38.093Z,116
2023-03-12T04:57:54.367Z,106
2023-03-12T04:58:38.240Z,112
2023-03-12T04:59:10.384Z,112
2023-03-12T04:59:42.244Z,112
2023-03-12T05:00:15.214Z,112
2023-03-12T05:00:46.149Z,122
2023-03-12T05:01:18.302Z,126
2023-03-12T05:01:49.996Z,126
2023-03-12T05:02:22.118Z,123
2023-03-12T05:02:54.198Z,123
2023-03-12T05:03:26.190Z,107
2023-03-12T05:03:57.964Z,106
2023-03-12T05:04:32.478Z,102
2023-03-12T05:05:02.978Z,102
2023-03-12T05:05:34.027Z,102
2023-03-12T05:06:05.789Z,102
2023-03-12T05:06:37.833Z,115
2023-03-12T05:06:54.026Z,115
2023-03-12T05:07:25.797Z,116
2023-03-12T05:07:42.152Z,115
2023-03-12T05:08:13.714Z,114
2023-03-12T05:08:45.678Z,108
2023-03-12T05:09:17.721Z,112
2023-03-12T05:09:49.788Z,121
2023-03-12T05:10:22.169Z,121
2023-03-12T05:10:53.672Z,121
2023-03-12T05:11:09.896Z,120
2023-03-12T05:11:41.799Z,118
2023-03-12T05:12:25.728Z,117
2023-03-12T05:12:57.503Z,118
2023-03-12T05:13:13.685Z,118
2023-03-12T05:13:45.766Z,118
2023-03-12T05:14:29.601Z,118
2023-03-12T05:15:04.432Z,118
2023-03-12T05:15:33.574Z,117
2023-03-12T05:16:05.463Z,117
2023-03-12T05:16:37.560Z,117
2023-03-12T05:17:09.687Z,116
2023-03-12T05:17:41.221Z,114
2023-03-12T05:18:13.570Z,106
2023-03-12T05:18:45.458Z,108
2023-03-12T05:19:17.407Z,106
2023-03-12T05:19:49.354Z,105
2023-03-12T05:20:21.745Z,99
2023-03-12T05:20:53.375Z,101
2023-03-12T05:21:25.421Z,101
2023-03-12T05:21:57.085Z,216
2023-03-12T05:22:29.196Z,237
2023-03-12T05:23:01.389Z,197
2023-03-12T05:23:33.345Z,146
2023-03-12T05:24:05.185Z,130
2023-03-12T05:24:37.067Z,130
2023-03-12T05:25:09.399Z,130
2023-03-12T05:25:41.192Z,130
2023-03-12T05:26:13.142Z,130
2023-03-12T05:26:44.933Z,130
2023-03-12T05:27:16.958Z,130
2023-03-12T05:27:49.066Z,130
2023-03-12T05:28:20.895Z,130
2023-03-12T05:28:52.969Z,130
2023-03-12T05:29:25.021Z,130
2023-03-12T05:29:56.935Z,130
2023-03-12T05:30:29.084Z,130
2023-03-12T05:31:00.860Z,130
2023-03-12T05:31:32.938Z,130
2023-03-12T05:32:05.207Z,130
2023-03-12T05:32:36.715Z,130
2023-03-12T05:32:53.001Z,130
2023-03-12T05:33:36.815Z,130
2023-03-12T05:34:08.960Z,130
2023-03-12T05:34:40.863Z,130
2023-03-12T05:35:13.135Z,130
2023-03-12T05:35:44.725Z,130
2023-03-12T05:36:16.712Z,130
2023-03-12T05:36:48.544Z,130
2023-03-12T05:37:20.533Z,130
2023-03-12T05:37:52.838Z,130
2023-03-12T05:38:24.782Z,130
2023-03-12T05:38:56.385Z,130
2023-03-12T05:39:28.520Z,130
2023-03-12T05:40:00.773Z,130
2023-03-12T05:40:32.461Z,130
2023-03-12T05:41:04.976Z,130
2023-03-12T05:41:36.517Z,130
2023-03-12T05:42:08.328Z,130
2023-03-12T05:42:40.519Z,130
2023-03-12T05:43:12.453Z,130
2023-03-12T05:43:44.287Z,130
2023-03-12T05:44:16.375Z,130
2023-03-12T05:44:48.375Z,130
2023-03-12T05:45:20.694Z,130
2023-03-12T05:45:52.520Z,130
2023-03-12T05:46:08.440Z,130
2023-03-12T05:46:40.234Z,130
2023-03-12T05:47:24.184Z,130
2023-03-12T05:47:56.085Z,130
2023-03-12T05:48:12.448Z,130
2023-03-12T05:48:44.222Z,130
2023-03-12T05:49:28.128Z,130
2023-03-12T05:50:00.215Z,130
2023-03-12T05:50:32.337Z,130
2023-03-12T05:51:04.837Z,130
2023-03-12T05:51:36.084Z,130
2023-03-12T05:52:08.090Z,130
2023-03-12T05:52:40.088Z,130
2023-03-12T05:53:12.078Z,130
2023-03-12T05:53:44.161Z,130
2023-03-12T05:54:16.023Z,130
2023-03-12T05:54:47.757Z,130
2023-03-12T05:55:20.225Z,130
2023-03-12T05:55:51.901Z,130
2023-03-12T05:56:23.931Z,130
2023-03-12T05:56:55.798Z,130
2023-03-12T05:57:27.819Z,130
2023-03-12T05:57:59.705Z,130
2023-03-12T05:58:31.840Z,130
2023-03-12T05:59:04.728Z,130
2023-03-12T05:59:35.819Z,130
2023-03-12T06:00:08.631Z,130
2023-03-12T06:00:39.940Z,130
2023-03-12T06:01:11.819Z,130
2023-03-12T06:01:43.857Z,130
2023-03-12T06:02:15.833Z,130
2023-03-12T06:02:47.724Z,130
2023-03-12T06:03:19.696Z,130
2023-03-12T06:03:51.750Z,130
2023-03-12T06:04:23.752Z,130
2023-03-12T06:04:55.534Z,130
2023-03-12T06:05:27.861Z,130
2023-03-12T06:05:59.749Z,130
2023-03-12T06:06:31.523Z,130
2023-03-12T06:07:04.733Z,130
2023-03-12T06:07:35.481Z,130
2023-03-12T06:07:51.749Z,130
2023-03-12T06:08:35.456Z,130
2023-03-12T06:08:51.644Z,130
2023-03-12T06:09:35.605Z,130
2023-03-12T06:10:07.830Z,130
2023-03-12T06:10:39.638Z,130
2023-03-12T06:11:11.380Z,130
2023-03-12T06:11:43.389Z,130
2023-03-12T06:12:15.368Z,130
2023-03-12T06:12:47.334Z,130
2023-03-12T06:13:19.381Z,130
2023-03-12T06:13:51.480Z,130
2023-03-12T06:14:23.455Z,130
2023-03-12T06:14:55.211Z,129
2023-03-12T06:15:27.709Z,129
2023-03-12T06:15:59.239Z,129
2023-03-12T06:16:31.376Z,129
2023-03-12T06:17:04.105Z,129
2023-03-12T06:17:35.070Z,129
2023-03-12T06:17:51.346Z,129
2023-03-12T06:18:23.233Z,129
2023-03-12T06:18:39.120Z,129
2023-03-12T06:19:11.118Z,129
2023-03-12T06:19:43.177Z,129
2023-03-12T06:20:15.301Z,129
2023-03-12T06:20:47.084Z,129
2023-03-12T06:21:18.905Z,129
2023-03-12T06:21:50.904Z,129
2023-03-12T06:22:07.027Z,129
2023-03-12T06:22:38.763Z,129
2023-03-12T06:23:23.094Z,129
2023-03-12T06:23:54.710Z,129
2023-03-12T06:24:26.741Z,129
2023-03-12T06:24:58.891Z,129
2023-03-12T06:25:31.118Z,129
2023-03-12T06:26:03.429Z,129
2023-03-12T06:26:34.713Z,129
2023-03-12T06:26:50.946Z,129
2023-03-12T06:27:34.679Z,129
2023-03-12T06:28:06.726Z,128
2023-03-12T06:28:38.549Z,128
2023-03-12T06:29:10.768Z,128
2023-03-12T06:29:42.751Z,121
2023-03-12T06:30:15.916Z,121
2023-03-12T06:30:46.440Z,121
2023-03-12T06:31:18.736Z,121
2023-03-12T06:31:50.615Z,121
2023-03-12T06:32:22.846Z,121
2023-03-12T06:32:54.461Z,121
2023-03-12T06:33:26.608Z,121
2023-03-12T06:33:58.492Z,121
2023-03-12T06:34:30.705Z,121
2023-03-12T06:35:03.619Z,121
2023-03-12T06:35:34.395Z,121
2023-03-12T06:35:50.899Z,121
2023-03-12T06:36:22.538Z,121
2023-03-12T06:36:38.344Z,121
2023-03-12T06:37:10.317Z,121
2023-03-12T06:37:42.293Z,121
2023-03-12T06:38:14.283Z,121
2023-03-12T06:38:46.233Z,121
2023-03-12T06:39:18.017Z,121
2023-03-12T06:39:50.328Z,121
2023-03-12T06:40:06.378Z,121
2023-03-12T06:40:38.122Z,121
2023-03-12T06:41:22.321Z,121
2023-03-12T06:41:54.066Z,121
2023-03-12T06:42:26.030Z,121
2023-03-12T06:42:58.036Z,121
2023-03-12T06:43:30.193Z,121
2023-03-12T06:44:02.430Z,121
2023-03-12T06:44:34.061Z,121
2023-03-12T06:44:50.411Z,121
2023-03-12T06:45:34.563Z,121
2023-03-12T06:46:06.033Z,121
2023-03-12T06:46:37.856Z,121
2023-03-12T06:47:09.845Z,100
2023-03-12T06:47:41.976Z,100
2023-03-12T06:48:13.941Z,100
2023-03-12T06:48:45.776Z,100
2023-03-12T06:49:17.955Z,100
2023-03-12T06:49:49.891Z,100
2023-03-12T06:50:22.387Z,100
2023-03-12T06:50:53.838Z,100
2023-03-12T06:51:25.906Z,100
2023-03-12T06:51:57.709Z,100
2023-03-12T06:52:29.888Z,100
2023-03-12T06:53:02.102Z,100
2023-03-12T06:53:33.720Z,100
2023-03-12T06:54:05.914Z,100
2023-03-12T06:54:37.613Z,100
2023-03-12T06:55:09.822Z,100
2023-03-12T06:55:41.592Z,100
2023-03-12T06:56:13.670Z,100
2023-03-12T06:56:45.593Z,100
2023-03-12T06:57:17.437Z,100
2023-03-12T06:57:49.560Z,100
2023-03-12T06:58:21.520Z,100
2023-03-12T06:58:53.639Z,100
2023-03-12T06:59:25.310Z,100
2023-03-12T06:59:57.329Z,100
2023-03-12T07:00:32.403Z,101
2023-03-12T07:01:01.681Z,98
2023-03-12T07:01:33.189Z,98
2023-03-12T07:01:49.625Z,96
2023-03-12T07:02:33.456Z,95
2023-03-12T07:03:05.639Z,92
2023-03-12T07:03:42.376Z,115
2023-03-12T07:04:09.150Z,113
2023-03-12T07:04:41.468Z,100
2023-03-12T07:05:13.788Z,88
2023-03-12T07:05:45.042Z,88
2023-03-12T07:06:17.078Z,59
2023-03-12T07:06:49.318Z,73
2023-03-12T07:07:21.027Z,78
2023-03-12T07:07:53.390Z,59
2023-03-12T07:08:24.984Z,93
2023-03-12T07:08:57.005Z,84
2023-03-12T07:09:29.103Z,91
2023-03-12T07:10:03.341Z,114
2023-03-12T07:10:33.008Z,73
2023-03-12T07:10:49.324Z,69
2023-03-12T07:11:21.212Z,115
2023-03-12T07:12:05.270Z,59
2023-03-12T07:12:36.783Z,56